Latest Weather Observations for Combienbar

IDV60801

Issued at 11:31 am EDT Monday 2 March 2015 (issued every 30 minutes, with the page automatically refreshed every 10 minutes)

About weather observations | Map of weather stations | Latest weather observations for VIC | Other Formats
Station Details ID: 084143 Name: COMBIENBAR AWS Lat: -37.34 Lon: 149.02 Height: 640.0 m
Data from the previous 72 hours. | See also: Recent months at Combienbar
Date/Time
EDT
Temp
°C
App
Temp
°C
Dew
Point
Rel
Hum
%
Delta-T
°C
Wind Press
QNH
hPa
Press
MSL
hPa
Rain
since 9 am
mm
Dir
 
Spd
km/h
Gust
km/h
Spd
kts
Gust
kts
02/11:30am 20.0 18.5 10.7 55 5.2 NNE 9 17 5 9 1019.3 1017.4 0.0
02/11:00am 18.6 16.2 8.8 53 5.3 NNE 11 24 6 13 1019.4 1017.5 0.0
02/10:30am 17.4 15.4 8.5 56 4.7 NNE 9 20 5 11 1019.9 1017.9 0.0
02/10:00am 17.2 16.1 9.9 62 4.0 NNE 6 11 3 6 1020.0 1018.0 0.0
02/09:30am 16.9 16.3 10.5 66 3.5 NNE 4 7 2 4 1020.1 1018.1 0.0
02/09:00am 15.2 14.5 10.0 71 2.8 NNE 4 9 2 5 1020.0 1018.0 1.6
02/08:30am 12.9 12.4 9.2 78 1.9 ENE 2 6 1 3 1020.1 1018.1 1.6
02/08:00am 11.1 10.3 6.6 74 2.2 CALM 0 0 0 0 1020.3 1018.3 1.6
02/07:30am 9.3 8.3 5.7 78 1.7 CALM 0 0 0 0 1020.0 1018.0 1.6
02/07:00am 9.0 7.8 4.6 74 2.0 CALM 0 0 0 0 1020.0 1018.0 1.6
02/06:30am 9.8 8.6 4.4 69 2.5 CALM 0 6 0 3 1019.9 1017.9 1.6
02/06:00am 9.1 8.1 5.8 80 1.6 CALM 0 0 0 0 1020.1 1018.1 1.6
02/05:30am 9.2 8.5 6.8 85 1.2 CALM 0 0 0 0 1019.9 1017.9 1.6
02/05:00am 9.0 8.4 7.5 90 0.7 CALM 0 0 0 0 1019.8 1017.8 1.6
02/04:30am 9.6 9.1 7.9 89 0.8 CALM 0 0 0 0 1019.4 1017.5 1.6
02/04:00am 9.6 9.2 8.2 91 0.7 CALM 0 0 0 0 1019.4 1017.5 1.6
02/03:30am 9.8 9.4 8.2 90 0.8 CALM 0 0 0 0 1019.3 1017.4 1.6
02/03:00am 10.2 9.8 8.3 88 1.0 CALM 0 0 0 0 1019.2 1017.3 1.6
02/02:30am 10.6 10.4 9.2 91 0.7 CALM 0 0 0 0 1019.0 1017.0 1.6
02/02:00am 10.5 10.3 8.9 90 0.8 CALM 0 2 0 1 1019.3 1017.4 1.6
02/01:30am 10.6 10.5 9.4 92 0.6 CALM 0 2 0 1 1019.3 1017.4 1.6
02/01:00am 10.6 10.6 9.7 94 0.5 CALM 0 0 0 0 1019.3 1017.4 1.6
02/12:30am 10.8 10.7 9.4 91 0.7 CALM 0 0 0 0 1018.9 1016.9 1.6
02/12:00am 10.7 10.5 9.0 89 0.9 CALM 0 0 0 0 1018.9 1016.9 1.6
 
Date/Time
EDT
Temp
°C
App
Temp
°C
Dew
Point
Rel
Hum
%
Delta-T
°C
Wind Press
QNH
hPa
Press
MSL
hPa
Rain
since 9 am
mm
Dir
 
Spd
km/h
Gust
km/h
Spd
kts
Gust
kts
01/11:30pm 10.6 10.3 8.7 88 1.0 CALM 0 6 0 3 1019.0 1017.0 1.6
01/11:00pm 11.2 10.6 9.1 87 1.1 SW 2 6 1 3 1019.3 1017.4 1.6
01/10:30pm 11.1 10.6 9.2 88 1.0 SW 2 4 1 2 1019.2 1017.3 1.6
01/10:00pm 11.4 10.5 9.1 86 1.2 SW 4 7 2 4 1019.0 1017.0 1.6
01/09:30pm 11.5 10.6 9.2 86 1.2 SW 4 11 2 6 1018.9 1016.9 1.6
01/09:00pm 11.5 11.1 9.8 89 0.9 SSW 2 6 1 3 1018.5 1016.5 1.6
01/08:30pm 11.6 10.7 9.3 86 1.2 SW 4 7 2 4 1017.7 1015.8 1.6
01/08:00pm 11.8 10.5 9.2 84 1.3 SW 6 9 3 5 1017.2 1015.2 1.6
01/07:30pm 11.9 10.8 9.8 87 1.1 SW 6 13 3 7 1016.8 1014.8 1.6
01/07:00pm 12.2 11.6 10.4 89 1.0 SW 4 7 2 4 1016.5 1014.5 1.6
01/06:30pm 12.5 11.8 10.0 85 1.3 SSW 4 9 2 5 1015.9 1013.9 1.6
01/06:00pm 12.7 11.6 9.9 83 1.5 SSW 6 9 3 5 1015.5 1013.5 1.6
01/05:30pm 12.8 11.9 10.7 87 1.1 SSW 6 9 3 5 1015.2 1013.2 1.6
01/05:00pm 12.5 11.6 10.6 88 1.0 SSW 6 11 3 6 1015.0 1013.0 1.6
01/04:30pm 12.1 11.7 11.0 93 0.6 SW 4 11 2 6 1014.8 1012.7 1.6
01/04:00pm 11.4 10.6 10.9 97 0.3 SW 6 11 3 6 1014.7 1012.6 1.6
01/03:30pm 11.5 11.1 11.0 97 0.3 SW 4 9 2 5 1014.3 1012.3 1.6
01/03:00pm 12.1 11.8 11.5 96 0.3 SW 4 6 2 3 1014.0 1012.0 1.4
01/02:30pm 12.8 12.4 11.0 89 1.0 SW 4 11 2 6 1013.8 1011.8 1.0
01/02:00pm 13.4 12.1 10.0 80 1.8 WSW 7 19 4 10 1013.5 1011.4 1.0
01/01:30pm 12.7 11.6 10.1 84 1.4 SW 6 17 3 9 1013.4 1011.3 1.0
01/01:00pm 13.7 12.9 11.0 84 1.5 SSW 6 11 3 6 1013.0 1010.9 1.0
01/12:30pm 13.7 13.4 11.6 87 1.2 SW 4 11 2 6 1012.9 1010.8 1.0
01/12:00pm 12.1 11.8 11.5 96 0.3 SSW 4 7 2 4 1012.9 1010.8 1.0
01/11:30am 12.1 11.8 11.6 97 0.3 SW 4 6 2 3 1012.5 1010.5 1.0
01/11:00am 12.2 11.6 11.7 97 0.3 SW 6 15 3 8 1011.9 1009.8 1.0
01/10:30am 13.5 13.7 13.2 98 0.2 SSW 4 9 2 5 1011.4 1008.7 1.0
01/10:00am 13.5 13.7 13.0 97 0.3 SSW 4 7 2 4 1010.7 1008.0 0.6
01/09:30am 14.1 14.5 13.6 97 0.3 SSW 4 7 2 4 1010.5 1007.8 0.4
01/09:00am 14.9 15.5 14.3 96 0.4 SSW 4 9 2 5 1009.9 1007.2 4.8
01/08:30am 15.8 17.5 15.2 96 0.4 CALM 0 0 0 0 1009.6 1006.9 1.6
01/08:00am 15.8 16.9 14.7 93 0.7 E 2 9 1 5 1008.4 1005.7 1.2
01/07:30am 17.1 18.4 14.0 82 1.8 CALM 0 6 0 3 1007.5 1004.8 0.0
01/07:00am 18.0 17.8 12.9 72 3.0 NNE 6 13 3 7 1005.7 1003.0 0.0
01/06:30am 19.4 18.8 12.4 64 4.0 N 7 17 4 9 1005.9 1003.2 0.0
01/06:00am 17.2 18.4 13.7 80 2.1 CALM 0 2 0 1 1005.2 1002.4 0.0
01/05:30am 16.6 17.2 14.2 86 1.4 NNE 4 6 2 3 1005.0 1002.2 0.0
01/05:00am 16.6 17.6 14.4 87 1.3 NNE 2 6 1 3 1006.3 1003.5 0.0
01/04:30am 16.8 18.1 14.1 84 1.6 CALM 0 2 0 1 1007.0 1004.3 0.0
01/04:00am 17.3 18.7 14.4 83 1.7 CALM 0 4 0 2 1007.0 1004.3 0.0
01/03:30am 17.6 18.6 14.3 81 2.0 SSW 2 4 1 2 1006.6 1003.8 0.0
01/03:00am 18.5 18.7 14.2 76 2.6 SW 6 20 3 11 1007.1 1004.4 0.0
01/02:30am 19.2 20.0 14.9 76 2.6 SSW 4 7 2 4 1006.9 1004.2 0.0
01/02:00am 21.1 22.2 16.5 75 2.9 SSW 6 13 3 7 1006.5 1003.7 0.0
01/01:30am 22.9 21.6 12.5 52 6.1 NNE 11 20 6 11 1004.9 1002.1 0.0
01/01:00am 22.2 21.2 13.3 57 5.3 NNE 11 24 6 13 1004.9 1002.1 0.0
01/12:30am 21.8 21.6 13.7 60 4.8 NNE 7 15 4 8 1005.5 1002.8 0.0
01/12:00am 21.3 21.1 13.5 61 4.6 NNE 7 13 4 7 1006.0 1003.3 0.0
 
Date/Time
EDT
Temp
°C
App
Temp
°C
Dew
Point
Rel
Hum
%
Delta-T
°C
Wind Press
QNH
hPa
Press
MSL
hPa
Rain
since 9 am
mm
Dir
 
Spd
km/h
Gust
km/h
Spd
kts
Gust
kts
28/11:30pm 21.2 21.5 14.6 66 4.0 NNE 6 11 3 6 1006.5 1003.7 0.0
28/11:00pm 21.0 21.4 15.3 70 3.5 NNE 7 13 4 7 1007.1 1004.4 0.0
28/10:30pm 21.3 22.7 17.3 78 2.5 NNE 6 11 3 6 1007.7 1005.0 0.0
28/10:00pm 21.5 23.6 18.1 81 2.2 NNE 4 7 2 4 1008.4 1005.7 0.0
28/09:30pm 21.5 24.3 18.9 85 1.7 NNE 2 6 1 3 1008.8 1006.1 0.0
28/09:00pm 21.2 23.2 17.8 81 2.2 NNE 4 6 2 3 1008.6 1005.9 0.0
28/08:30pm 21.4 24.3 18.2 82 2.0 CALM 0 0 0 0 1008.7 1006.0 0.0
28/08:00pm 21.9 24.8 18.3 80 2.3 CALM 0 0 0 0 1008.9 1006.2 0.0
28/07:30pm 22.2 25.2 18.4 79 2.4 CALM 0 0 0 0 1008.9 1006.2 0.0
28/07:00pm 22.7 25.7 18.5 77 2.7 CALM 0 0 0 0 1008.8 1006.1 0.0
28/06:30pm 23.0 26.1 18.7 77 2.8 CALM 0 0 0 0 1008.8 1006.1 0.0
28/06:00pm 23.5 26.4 18.2 72 3.4 CALM 0 0 0 0 1008.7 1006.0 0.0
28/05:30pm 24.1 27.4 19.0 73 3.3 CALM 0 0 0 0 1008.6 1005.9 0.0
28/05:00pm 24.7 27.7 18.4 68 4.1 CALM 0 0 0 0 1008.5 1005.8 0.0
28/04:30pm 25.7 29.3 19.8 70 3.9 CALM 0 0 0 0 1008.4 1005.7 0.0
28/04:00pm 25.1 28.4 19.0 69 4.0 CALM 0 0 0 0 1008.5 1005.8 0.0
28/03:30pm 24.0 26.3 16.8 64 4.5 CALM 0 0 0 0 1008.6 1005.9 0.0
28/03:00pm 24.8 28.3 19.6 73 3.4 CALM 0 0 0 0 1008.8 1006.1 0.0
28/02:30pm 24.4 28.0 19.7 75 3.1 CALM 0 0 0 0 1009.0 1006.3 0.0
28/02:00pm 25.5 27.4 15.8 55 6.1 CALM 0 0 0 0 1009.2 1006.5 0.0
28/01:30pm 25.6 27.7 16.2 56 5.9 CALM 0 4 0 2 1009.2 1006.5 0.0
28/01:00pm 25.2 27.8 17.4 62 5.0 CALM 0 7 0 4 1009.7 1007.0 0.0
28/12:30pm 26.5 28.8 17.8 58 5.6 N 2 4 1 2 1009.8 1007.1 0.0
28/12:00pm 24.6 27.4 18.8 70 3.8 E 2 6 1 3 1010.0 1007.3 0.0
28/11:30am 23.3 24.8 15.6 62 4.8 ENE 2 6 1 3 1010.1 1007.4 0.0
28/11:00am 21.4 22.6 15.0 67 3.9 ESE 2 6 1 3 1010.0 1007.3 0.0
28/10:30am 20.4 21.4 14.3 68 3.6 NW 2 13 1 7 1009.7 1007.0 0.0
28/10:00am 19.1 19.8 14.4 74 2.8 NNE 4 6 2 3 1010.4 1007.7 0.0
28/09:30am 18.5 20.7 16.5 88 1.2 CALM 0 0 0 0 1010.0 1007.3 0.0
28/09:00am 17.9 19.9 15.9 88 1.2 CALM 0 4 0 2 1010.6 1007.9 0.0
28/08:30am 17.7 19.7 15.9 89 1.1 CALM 0 2 0 1 1010.7 1008.0 0.0
28/08:00am 17.5 19.2 15.3 87 1.3 CALM 0 4 0 2 1010.8 1008.1 0.0
28/07:30am 17.0 18.6 14.8 87 1.3 CALM 0 0 0 0 1010.8 1008.1 0.0
28/07:00am 16.8 18.4 14.8 88 1.2 CALM 0 0 0 0 1010.7 1008.0 0.0
28/06:30am 16.3 17.9 14.8 91 0.9 CALM 0 0 0 0 1010.6 1007.9 0.0
28/06:00am 16.2 17.7 14.7 91 0.9 CALM 0 0 0 0 1010.6 1007.9 0.0
28/05:30am 16.2 17.7 14.7 91 0.9 CALM 0 2 0 1 1010.4 1007.7 0.0
28/05:00am 16.2 17.7 14.7 91 0.9 CALM 0 0 0 0 1010.4 1007.7 0.0
28/04:30am 16.2 17.7 14.7 91 0.9 CALM 0 0 0 0 1010.6 1007.9 0.0
28/04:00am 15.8 16.9 14.7 93 0.7 NNE 2 6 1 3 1011.0 1008.4 0.0
28/03:30am 16.0 17.5 14.7 92 0.8 CALM 0 2 0 1 1011.3 1008.6 0.0
28/03:00am 15.9 17.4 14.6 92 0.8 CALM 0 0 0 0 1011.5 1008.8 0.0
28/02:30am 16.1 17.7 14.8 92 0.8 CALM 0 0 0 0 1011.8 1009.1 0.0
28/02:00am 16.1 17.7 14.8 92 0.8 CALM 0 4 0 2 1012.1 1009.4 0.0
28/01:30am 15.5 16.6 14.5 94 0.6 NE 2 4 1 2 1012.1 1009.4 0.0
28/01:00am 15.5 16.9 14.5 94 0.6 CALM 0 4 0 2 1012.3 1009.7 0.0
28/12:30am 15.4 16.7 14.1 92 0.8 CALM 0 0 0 0 1012.4 1009.8 0.0
28/12:00am 15.5 16.8 14.0 91 0.9 CALM 0 0 0 0 1012.6 1010.0 0.0
 
Date/Time
EDT
Temp
°C
App
Temp
°C
Dew
Point
Rel
Hum
%
Delta-T
°C
Wind Press
QNH
hPa
Press
MSL
hPa
Rain
since 9 am
mm
Dir
 
Spd
km/h
Gust
km/h
Spd
kts
Gust
kts
27/11:30pm 15.3 16.6 14.0 92 0.8 CALM 0 4 0 2 1012.9 1010.2 0.0
27/11:00pm 15.1 16.3 13.8 92 0.8 CALM 0 0 0 0 1012.7 1010.1 0.0
27/10:30pm 15.0 16.2 13.7 92 0.8 CALM 0 2 0 1 1012.9 1010.2 0.0
27/10:00pm 15.3 16.2 14.0 92 0.8 NNE 2 4 1 2 1012.2 1009.5 0.0
27/09:30pm 15.2 16.0 13.7 91 0.9 NNE 2 4 1 2 1012.6 1010.0 0.0
27/09:00pm 15.4 16.2 13.6 89 1.0 NNE 2 4 1 2 1012.7 1010.1 0.0
27/08:30pm 15.4 16.6 13.8 90 0.9 CALM 0 4 0 2 1013.1 1010.4 0.0
27/08:00pm 15.3 16.6 14.0 92 0.8 CALM 0 0 0 0 1012.9 1010.2 0.0
27/07:30pm 15.4 16.5 13.6 89 1.0 CALM 0 0 0 0 1012.5 1009.9 0.0
27/07:00pm 15.8 17.1 14.0 89 1.1 CALM 0 0 0 0 1012.3 1009.7 0.0
27/06:30pm 16.1 17.4 14.1 88 1.2 CALM 0 0 0 0 1011.9 1009.2 0.0
27/06:00pm 16.3 17.7 14.3 88 1.2 CALM 0 2 0 1 1012.0 1009.3 0.0
27/05:30pm 16.9 18.0 14.7 87 1.3 SSW 2 6 1 3 1011.7 1009.0 0.0
27/05:00pm 17.6 19.3 15.2 86 1.4 CALM 0 4 0 2 1011.4 1008.7 0.0
27/04:30pm 18.8 20.7 15.7 82 1.9 CALM 0 4 0 2 1011.0 1008.4 0.0
27/04:00pm 19.3 21.2 15.8 80 2.1 CALM 0 4 0 2 1010.9 1008.3 0.0
27/03:30pm 19.7 21.8 16.3 81 2.1 CALM 0 4 0 2 1011.0 1008.4 0.0
27/03:00pm 20.3 22.0 16.3 78 2.5 SSW 2 7 1 4 1011.2 1008.5 0.0
27/02:30pm 20.8 22.6 16.4 76 2.7 SSW 2 6 1 3 1011.3 1008.6 0.0
27/02:00pm 20.8 22.8 16.0 74 3.0 CALM 0 4 0 2 1011.4 1008.7 0.0
27/01:30pm 20.2 22.1 15.8 76 2.7 CALM 0 2 0 1 1011.4 1008.7 0.0
27/01:00pm 19.5 21.3 15.6 78 2.4 CALM 0 2 0 1 1011.7 1009.0 0.0
27/12:30pm 21.1 23.1 16.1 73 3.1 CALM 0 0 0 0 1012.0 1009.3 0.0
27/12:00pm 20.5 22.4 15.7 74 2.9 CALM 0 2 0 1 1012.4 1009.8 0.0

Other Formats:

Comma delimited format used in spreadsheet applications
http://www.bom.gov.au/fwo/IDV60801/IDV60801.94914.axf

JavaScript Object Notation format (JSON) in row-major order
http://www.bom.gov.au/fwo/IDV60801/IDV60801.94914.json